createdAt,value
2023-04-01T11:03:45.682Z,99815.30
2023-04-01T11:06:56.435Z,99819.05
2023-04-01T11:09:45.794Z,99815.79
2023-04-01T11:12:43.925Z,99810.92
2023-04-01T11:15:27.831Z,99812.48
2023-04-01T11:18:17.596Z,99815.15
2023-04-01T11:20:57.489Z,99819.27
2023-04-01T11:23:47.202Z,99823.16
2023-04-01T11:26:43.825Z,99820.52
2023-04-01T11:30:12.093Z,99820.96
2023-04-01T11:33:13.658Z,99821.36
2023-04-01T11:36:32.062Z,99821.70
2023-04-01T11:39:30.061Z,99820.23
2023-04-01T11:42:32.538Z,99821.38
2023-04-01T11:45:54.676Z,99820.88
2023-04-01T11:48:45.001Z,99818.80
2023-04-01T11:51:19.154Z,99820.77
2023-04-01T11:54:05.187Z,99817.36
2023-04-01T11:56:58.021Z,99816.91
2023-04-01T11:59:50.392Z,99816.25
2023-04-01T12:02:23.355Z,99821.04
2023-04-01T12:05:03.016Z,99826.50
2023-04-01T12:08:04.830Z,99830.52
2023-04-01T12:10:58.684Z,99828.67
2023-04-01T12:13:50.205Z,99830.20
2023-04-01T12:16:39.580Z,99825.66
2023-04-01T12:19:15.326Z,99829.22
2023-04-01T12:22:11.357Z,99833.48
2023-04-01T12:24:50.096Z,99832.98
2023-04-01T12:27:30.369Z,99833.52
2023-04-01T12:30:16.386Z,99833.83
2023-04-01T12:33:05.716Z,99839.70
2023-04-01T12:36:00.565Z,99837.63
2023-04-01T12:38:49.171Z,99838.36
2023-04-01T12:41:40.083Z,99841.65
2023-04-01T12:44:21.528Z,99839.85
2023-04-01T12:46:51.601Z,99838.34
2023-04-01T12:49:48.535Z,99838.66
2023-04-01T12:52:34.878Z,99835.30
2023-04-01T12:55:20.187Z,99830.14
2023-04-01T12:57:50.541Z,99827.20
2023-04-01T13:00:35.791Z,99827.77
2023-04-01T13:03:20.172Z,99827.46
2023-04-01T13:06:34.916Z,99821.70
2023-04-01T13:09:18.133Z,99818.11
2023-04-01T13:11:54.934Z,99815.99
2023-04-01T13:14:50.713Z,99816.27
2023-04-01T13:17:24.069Z,99814.80
2023-04-01T13:20:04.739Z,99814.34
2023-04-01T13:22:38.527Z,99816.46
2023-04-01T13:25:20.140Z,99817.30
2023-04-01T13:28:05.441Z,99814.19
2023-04-01T13:30:41.836Z,99809.64
2023-04-01T13:33:33.477Z,99809.73
2023-04-01T13:36:26.981Z,99810.23
2023-04-01T13:39:01.590Z,99812.09
2023-04-01T13:42:09.095Z,99810.02
2023-04-01T13:44:48.222Z,99806.36
2023-04-01T13:47:37.792Z,99802.05
2023-04-01T13:50:27.019Z,99811.02
2023-04-01T13:53:16.112Z,99812.89
2023-04-01T13:56:09.718Z,99810.92
2023-04-01T13:58:56.269Z,99810.43
2023-04-01T14:01:55.361Z,99815.44
2023-04-01T14:04:44.190Z,99817.54
2023-04-01T14:07:30.633Z,99820.65
2023-04-01T14:10:09.908Z,99818.52
2023-04-01T14:12:51.256Z,99816.56
2023-04-01T14:15:39.412Z,99814.89
2023-04-01T14:18:19.029Z,99811.90
2023-04-01T14:21:03.805Z,99814.02
2023-04-01T14:23:43.044Z,99812.85
2023-04-01T14:26:35.546Z,99813.12
2023-04-01T14:29:40.266Z,99812.17
2023-04-01T14:32:19.172Z,99809.67
2023-04-01T14:35:04.930Z,99814.39
2023-04-01T14:37:42.355Z,99814.68
2023-04-01T14:40:40.499Z,99814.73
2023-04-01T14:43:22.704Z,99816.94
2023-04-01T14:45:58.579Z,99817.16
2023-04-01T14:48:37.157Z,99815.99
2023-04-01T14:51:14.429Z,99810.66
2023-04-01T14:53:56.777Z,99813.35
2023-04-01T14:57:12.649Z,99815.27
2023-04-01T14:59:49.326Z,99817.16
2023-04-01T15:02:25.871Z,99820.55
2023-04-01T15:05:17.325Z,99823.30
2023-04-01T15:08:11.180Z,99823.78
2023-04-01T15:10:43.880Z,99824.47
2023-04-01T15:13:38.661Z,99824.52
2023-04-01T15:16:08.797Z,99822.19
2023-04-01T15:18:57.274Z,99825.17
2023-04-01T15:21:27.460Z,99823.23
2023-04-01T15:24:18.511Z,99820.00
2023-04-01T15:26:45.522Z,99825.36
2023-04-01T15:29:37.091Z,99827.84
2023-04-01T15:54:43.193Z,99836.58
2023-04-01T15:58:01.022Z,99838.75
2023-04-01T16:00:52.042Z,99839.51
2023-04-01T16:03:32.700Z,99845.20
2023-04-01T16:06:18.999Z,99849.29
2023-04-01T16:09:09.067Z,99849.79
2023-04-01T16:11:58.552Z,99853.39
2023-04-01T16:14:54.115Z,99851.55
2023-04-01T16:17:47.950Z,99850.09
2023-04-01T16:20:17.917Z,99849.48
2023-04-01T16:22:57.283Z,99848.46
2023-04-01T16:25:42.230Z,99849.63
2023-04-01T16:28:33.539Z,99854.62
2023-04-01T16:31:05.568Z,99859.59
2023-04-01T16:33:58.560Z,99856.38
2023-04-01T16:36:37.368Z,99862.95
2023-04-01T16:39:16.635Z,99860.06
2023-04-01T16:41:54.695Z,99860.69
2023-04-01T16:44:21.828Z,99865.25
2023-04-01T16:46:59.978Z,99870.01
2023-04-01T16:50:08.934Z,99874.50
2023-04-01T16:53:04.440Z,99876.02
2023-04-01T16:55:42.556Z,99873.06
2023-04-01T16:58:14.673Z,99872.66
2023-04-01T17:00:48.806Z,99874.55
2023-04-01T17:03:24.573Z,99875.90
2023-04-01T17:06:21.288Z,99877.11
2023-04-01T17:09:23.878Z,99878.58
2023-04-01T17:12:03.593Z,99882.19
2023-04-01T17:14:48.296Z,99884.73
2023-04-01T17:17:22.545Z,99884.98
2023-04-01T17:20:18.299Z,99891.63
2023-04-01T17:22:55.600Z,99894.02
2023-04-01T17:25:38.865Z,99893.17
2023-04-01T17:28:21.487Z,99893.86
2023-04-01T17:31:08.612Z,99890.59
2023-04-01T17:34:01.772Z,99885.34
2023-04-01T17:36:32.351Z,99887.35
2023-04-01T17:39:31.391Z,99886.86
2023-04-01T17:42:15.257Z,99888.91
2023-04-01T17:44:48.664Z,99893.88
2023-04-01T17:47:40.265Z,99892.19
2023-04-01T17:50:21.282Z,99891.83
2023-04-01T17:53:12.639Z,99887.41
2023-04-01T17:55:49.105Z,99881.80
2023-04-01T17:58:32.705Z,99878.27
2023-04-01T18:01:18.783Z,99875.92
2023-04-01T18:04:05.679Z,99877.84
2023-04-01T18:06:36.585Z,99881.89
2023-04-01T18:09:35.216Z,99878.83
2023-04-01T18:12:11.301Z,99882.54
2023-04-01T18:14:50.708Z,99879.20
2023-04-01T18:17:39.161Z,99880.30
2023-04-01T18:20:19.043Z,99875.70
2023-04-01T18:22:57.888Z,99879.23
2023-04-01T18:25:37.911Z,99877.15
2023-04-01T18:28:36.785Z,99878.67
2023-04-01T18:31:06.445Z,99881.70
2023-04-01T18:34:02.433Z,99879.72
2023-04-01T18:36:52.364Z,99887.71
2023-04-01T18:39:34.785Z,99883.67
2023-04-01T18:42:02.476Z,99880.41
2023-04-01T18:44:35.404Z,99881.93
2023-04-01T18:47:14.441Z,99877.09
2023-04-01T18:49:56.522Z,99876.16
2023-04-01T18:52:35.160Z,99874.80
2023-04-01T18:55:02.028Z,99867.93
2023-04-01T18:58:27.834Z,99864.15
2023-04-01T19:01:14.733Z,99869.45
2023-04-01T19:03:54.283Z,99867.59
2023-04-01T19:06:32.296Z,99866.39
2023-04-01T19:09:21.804Z,99862.38
2023-04-01T19:12:01.415Z,99858.79
2023-04-01T19:15:02.482Z,99856.42
2023-04-01T19:17:44.669Z,99863.40
2023-04-01T19:20:19.539Z,99862.20
2023-04-01T19:22:53.000Z,99862.05
2023-04-01T19:25:37.800Z,99862.18
2023-04-01T19:28:14.249Z,99869.09
2023-04-01T19:30:58.492Z,99870.66
2023-04-01T19:33:59.844Z,99879.46
2023-04-01T19:36:57.172Z,99877.66
2023-04-01T19:39:55.281Z,99878.12
2023-04-01T19:42:34.711Z,99878.15
2023-04-01T19:45:18.950Z,99872.19
2023-04-01T19:48:06.542Z,99876.70
2023-04-01T19:50:53.646Z,99879.20
2023-04-01T19:53:31.779Z,99876.97
2023-04-01T19:56:20.105Z,99878.27
2023-04-01T19:58:56.600Z,99879.70
2023-04-01T20:01:44.700Z,99875.70
2023-04-01T20:04:21.247Z,99876.85
2023-04-01T20:07:16.812Z,99876.16
2023-04-01T20:10:07.177Z,99874.37
2023-04-01T20:12:40.214Z,99874.75
2023-04-01T20:15:45.847Z,99875.36
2023-04-01T20:18:21.540Z,99868.86
2023-04-01T20:21:00.194Z,99870.00
2023-04-01T20:23:44.420Z,99873.98
2023-04-01T20:26:13.444Z,99868.46
2023-04-01T20:28:49.424Z,99867.76
2023-04-01T20:31:16.647Z,99870.09
2023-04-01T20:34:08.719Z,99873.80
2023-04-01T20:37:01.685Z,99872.33
2023-04-01T20:39:53.546Z,99871.73
2023-04-01T20:42:46.947Z,99871.23
2023-04-01T20:45:34.384Z,99871.42
2023-04-01T20:48:39.948Z,99876.11
2023-04-01T20:51:22.268Z,99874.97
2023-04-01T20:54:02.820Z,99876.75
2023-04-01T20:56:43.682Z,99871.35
2023-04-01T20:59:39.111Z,99870.60
2023-04-01T21:02:33.407Z,99872.28
2023-04-01T21:05:41.188Z,99863.80
2023-04-01T21:08:20.704Z,99860.48
2023-04-01T21:11:21.584Z,99859.20
2023-04-01T21:14:07.144Z,99861.38
2023-04-01T21:17:17.717Z,99858.30
2023-04-01T21:19:51.736Z,99857.07
2023-04-01T21:22:55.849Z,99858.47
2023-04-01T21:25:56.815Z,99856.77
2023-04-01T21:28:23.820Z,99856.73
2023-04-01T21:31:13.246Z,99854.88
2023-04-01T21:33:53.249Z,99852.17
2023-04-01T21:36:29.361Z,99853.70
2023-04-01T21:38:59.846Z,99851.92
2023-04-01T21:41:54.278Z,99850.95
2023-04-01T21:44:41.102Z,99847.02
2023-04-01T21:47:17.632Z,99842.05
2023-04-01T21:50:04.847Z,99839.98
2023-04-01T21:52:57.782Z,99838.85
2023-04-01T21:55:45.883Z,99833.20
2023-04-01T21:58:57.547Z,99829.65
2023-04-01T22:01:46.135Z,99821.95
2023-04-01T22:04:38.603Z,99812.61
2023-04-01T22:07:48.832Z,99813.59
2023-04-01T22:10:41.121Z,99809.16
2023-04-01T22:13:19.215Z,99807.30
2023-04-01T22:16:06.122Z,99809.16
2023-04-01T22:18:55.899Z,99807.12
2023-04-01T22:21:52.506Z,99804.77
2023-04-01T22:24:52.134Z,99802.89
2023-04-01T22:27:35.358Z,99807.10
2023-04-01T22:30:08.499Z,99810.30
2023-04-01T22:32:45.110Z,99803.63
2023-04-01T22:35:18.234Z,99804.55
2023-04-01T22:38:30.513Z,99809.09
2023-04-01T22:41:52.227Z,99803.95
2023-04-01T22:44:52.585Z,99799.92
2023-04-01T22:47:38.022Z,99798.84
2023-04-01T22:50:14.172Z,99797.36
2023-04-01T22:52:45.829Z,99799.30
2023-04-01T22:55:28.026Z,99803.42
2023-04-01T22:58:03.551Z,99804.58
2023-04-01T23:00:53.798Z,99806.34
2023-04-01T23:03:28.822Z,99807.17
2023-04-01T23:05:59.359Z,99803.05
2023-04-01T23:08:41.391Z,99805.92
2023-04-01T23:11:27.041Z,99803.60
2023-04-01T23:14:04.602Z,99805.52
2023-04-01T23:16:41.418Z,99804.55
2023-04-01T23:19:19.102Z,99800.36
2023-04-01T23:21:52.280Z,99794.31
2023-04-01T23:24:28.719Z,99793.77
2023-04-01T23:26:58.750Z,99793.78
2023-04-01T23:29:27.152Z,99791.42
2023-04-01T23:32:00.118Z,99790.28
2023-04-01T23:34:31.129Z,99787.63
2023-04-01T23:37:10.682Z,99784.94
2023-04-01T23:39:41.124Z,99779.34
2023-04-01T23:42:13.880Z,99778.05
2023-04-01T23:44:41.609Z,99773.13
2023-04-01T23:47:16.459Z,99770.61
2023-04-01T23:49:51.399Z,99769.77
2023-04-01T23:52:32.835Z,99771.71
2023-04-01T23:55:09.590Z,99770.21
2023-04-01T23:57:37.431Z,99765.56
